createdAt,value
2018-12-05T00:00:15.428Z,1.20
2018-12-05T00:02:41.872Z,1.52
2018-12-05T00:05:08.410Z,1.25
2018-12-05T00:07:34.941Z,0.75
2018-12-05T00:10:01.614Z,0.82
2018-12-05T00:12:28.201Z,1.12
2018-12-05T00:14:54.873Z,0.95
2018-12-05T00:17:21.360Z,1.20
2018-12-05T00:20:51.305Z,0.93
2018-12-05T00:23:17.741Z,0.70
2018-12-05T00:25:44.274Z,1.22
2018-12-05T00:28:10.810Z,0.70
2018-12-05T00:30:37.223Z,1.92
2018-12-05T00:33:03.685Z,1.07
2018-12-05T00:35:30.205Z,0.60
2018-12-05T00:37:56.616Z,1.72
2018-12-05T00:47:09.192Z,1.12
2018-12-05T00:49:35.680Z,1.50
2018-12-05T00:52:02.140Z,1.05
2018-12-05T00:54:28.568Z,1.47
2018-12-05T00:56:55.020Z,1.67
2018-12-05T00:59:21.542Z,1.75
2018-12-05T01:01:47.992Z,1.50
2018-12-05T01:04:14.516Z,0.82
2018-12-05T01:06:40.968Z,0.93
2018-12-05T01:09:08.240Z,1.12
2018-12-05T01:11:34.792Z,0.98
2018-12-05T01:14:01.364Z,1.50
2018-12-05T01:16:27.815Z,1.87
2018-12-05T01:18:54.339Z,1.12
2018-12-05T01:21:20.892Z,0.93
2018-12-05T01:23:47.301Z,1.15
2018-12-05T01:26:13.755Z,1.30
2018-12-05T01:28:40.276Z,1.37
2018-12-05T01:31:06.824Z,1.02
2018-12-05T01:33:33.242Z,1.95
2018-12-05T01:35:59.701Z,0.68
2018-12-05T01:38:26.200Z,1.40
2018-12-05T01:40:52.642Z,1.20
2018-12-05T01:43:19.093Z,0.85
2018-12-05T01:45:45.510Z,0.93
2018-12-05T01:48:11.965Z,0.90
2018-12-05T01:50:38.481Z,0.72
2018-12-05T01:53:05.041Z,0.80
2018-12-05T01:55:31.660Z,0.68
2018-12-05T01:57:58.093Z,0.60
2018-12-05T02:00:24.612Z,1.40
2018-12-05T02:02:51.070Z,0.95
2018-12-05T02:05:17.485Z,0.98
2018-12-05T02:07:44.051Z,0.75
2018-12-05T02:10:10.556Z,1.15
2018-12-05T02:12:37.001Z,1.05
2018-12-05T02:15:04.055Z,1.07
2018-12-05T02:17:30.686Z,0.88
2018-12-05T02:19:57.214Z,0.50
2018-12-05T02:22:23.658Z,0.90
2018-12-05T02:24:50.180Z,2.05
2018-12-05T02:27:16.734Z,0.78
2018-12-05T02:29:43.248Z,0.93
2018-12-05T02:32:09.690Z,1.32
2018-12-05T02:34:36.463Z,2.90
2018-12-05T02:37:03.169Z,0.93
2018-12-05T02:39:29.709Z,0.85
2018-12-05T02:41:56.129Z,0.88
2018-12-05T02:44:22.693Z,1.60
2018-12-05T02:46:49.302Z,0.65
2018-12-05T02:49:15.757Z,0.98
2018-12-05T02:51:42.261Z,1.00
2018-12-05T02:54:08.713Z,0.98
2018-12-05T02:56:35.137Z,0.82
2018-12-05T02:59:01.689Z,1.02
2018-12-05T03:01:28.193Z,1.25
2018-12-05T03:03:54.648Z,2.05
2018-12-05T03:06:21.069Z,1.17
2018-12-05T03:08:47.517Z,0.60
2018-12-05T03:11:14.034Z,0.60
2018-12-05T03:13:40.597Z,0.60
2018-12-05T03:16:07.102Z,0.75
2018-12-05T03:18:33.658Z,2.00
2018-12-05T03:21:00.161Z,0.70
2018-12-05T03:23:26.613Z,0.50
2018-12-05T03:25:53.153Z,0.85
2018-12-05T03:28:19.589Z,1.55
2018-12-05T03:30:46.127Z,1.35
2018-12-05T03:33:12.735Z,0.60
2018-12-05T03:35:39.193Z,0.50
2018-12-05T03:38:05.977Z,0.60
2018-12-05T03:40:32.609Z,0.68
2018-12-05T03:42:59.206Z,0.90
2018-12-05T03:45:25.757Z,0.70
2018-12-05T03:47:52.250Z,0.88
2018-12-05T03:50:18.825Z,0.55
2018-12-05T03:52:45.425Z,1.27
2018-12-05T03:55:11.881Z,0.80
2018-12-05T03:57:38.301Z,0.72
2018-12-05T04:00:05.101Z,1.22
2018-12-05T04:02:31.570Z,1.17
2018-12-05T04:04:58.005Z,1.10
2018-12-05T04:07:24.425Z,0.88
2018-12-05T04:09:51.203Z,0.57
2018-12-05T04:12:17.821Z,1.32
2018-12-05T04:14:44.278Z,1.57
2018-12-05T04:17:10.769Z,0.82
2018-12-05T04:19:37.352Z,0.88
2018-12-05T04:22:04.068Z,2.90
2018-12-05T04:24:30.518Z,0.53
2018-12-05T04:26:57.114Z,0.60
2018-12-05T04:29:23.673Z,0.90
2018-12-05T04:31:50.094Z,0.85
2018-12-05T04:34:16.641Z,0.65
2018-12-05T04:36:43.073Z,0.60
2018-12-05T04:39:09.485Z,0.78
2018-12-05T04:41:35.957Z,0.60
2018-12-05T04:44:02.690Z,0.60
2018-12-05T04:46:29.229Z,0.42
2018-12-05T04:48:55.737Z,0.85
2018-12-05T04:51:22.196Z,0.60
2018-12-05T04:53:48.808Z,1.05
2018-12-05T04:56:15.366Z,0.60
2018-12-05T04:58:41.880Z,0.35
2018-12-05T05:01:08.591Z,0.60
2018-12-05T05:03:35.158Z,0.30
2018-12-05T05:06:01.589Z,1.35
2018-12-05T05:08:28.007Z,0.53
2018-12-05T05:10:54.587Z,0.85
2018-12-05T05:13:21.193Z,0.70
2018-12-05T05:15:47.629Z,1.75
2018-12-05T05:18:14.206Z,1.92
2018-12-05T05:20:40.704Z,1.10
2018-12-05T05:23:07.233Z,0.55
2018-12-05T05:25:33.705Z,0.50
2018-12-05T05:28:00.189Z,0.60
2018-12-05T05:30:26.753Z,0.70
2018-12-05T05:32:53.251Z,0.82
2018-12-05T05:35:21.077Z,0.80
2018-12-05T05:37:47.586Z,0.50
2018-12-05T05:40:14.090Z,0.62
2018-12-05T05:42:40.558Z,0.45
2018-12-05T05:45:07.060Z,0.70
2018-12-05T05:47:33.618Z,0.65
2018-12-05T05:50:00.029Z,0.60
2018-12-05T05:52:26.481Z,0.30
2018-12-05T05:54:52.897Z,0.40
2018-12-05T05:57:19.349Z,1.02
2018-12-05T05:59:46.181Z,0.53
2018-12-05T06:02:12.629Z,0.55
2018-12-05T06:04:39.245Z,0.40
2018-12-05T06:07:05.685Z,0.90
2018-12-05T06:09:32.105Z,0.50
2018-12-05T06:11:58.677Z,0.70
2018-12-05T06:14:25.162Z,0.53
2018-12-05T06:16:51.621Z,0.90
2018-12-05T06:19:18.034Z,0.60
2018-12-05T06:21:44.477Z,0.47
2018-12-05T06:24:10.913Z,0.55
2018-12-05T06:26:37.469Z,0.70
2018-12-05T06:29:04.091Z,0.75
2018-12-05T06:31:30.505Z,0.57
2018-12-05T06:33:56.958Z,0.50
2018-12-05T06:36:23.377Z,0.53
2018-12-05T06:38:49.813Z,0.93
2018-12-05T06:41:16.229Z,3.58
2018-12-05T06:43:42.685Z,9.10
2018-12-05T06:46:09.099Z,4.83
2018-12-05T06:48:35.553Z,9.10
2018-12-05T06:51:01.970Z,7.92
2018-12-05T06:53:28.518Z,17.17
2018-12-05T06:55:54.951Z,14.28
2018-12-05T06:58:21.493Z,16.32
2018-12-05T07:00:48.009Z,14.78
2018-12-05T07:03:14.458Z,10.35
2018-12-05T07:05:40.957Z,15.53
2018-12-05T07:08:07.424Z,8.30
2018-12-05T07:10:33.953Z,9.50
2018-12-05T07:13:00.389Z,9.10
2018-12-05T07:15:26.917Z,10.08
2018-12-05T07:17:53.337Z,7.65
2018-12-05T07:20:19.893Z,12.53
2018-12-05T07:22:46.308Z,8.40
2018-12-05T07:25:12.883Z,9.83
2018-12-05T07:27:39.478Z,9.13
2018-12-05T07:30:06.172Z,10.28
2018-12-05T07:32:32.744Z,10.00
2018-12-05T07:34:59.197Z,8.08
2018-12-05T07:37:25.630Z,9.30
2018-12-05T07:39:52.388Z,8.48
2018-12-05T07:42:18.893Z,11.28
2018-12-05T07:44:45.353Z,8.60
2018-12-05T07:47:11.758Z,9.98
2018-12-05T07:49:38.211Z,9.48
2018-12-05T07:52:04.630Z,9.33
2018-12-05T07:54:31.073Z,9.10
2018-12-05T07:56:57.494Z,8.48
2018-12-05T07:59:24.053Z,7.70
2018-12-05T08:01:50.558Z,7.70
2018-12-05T08:04:17.017Z,9.25
2018-12-05T08:06:43.433Z,6.95
2018-12-05T08:09:09.855Z,8.55
2018-12-05T08:11:36.433Z,7.13
2018-12-05T08:14:03.082Z,7.72
2018-12-05T08:16:29.677Z,7.50
2018-12-05T08:18:56.104Z,9.68
2018-12-05T08:21:22.560Z,8.15
2018-12-05T08:25:18.726Z,7.85
2018-12-05T08:27:45.198Z,7.85
2018-12-05T08:30:11.661Z,5.50
2018-12-05T08:32:38.262Z,7.42
2018-12-05T08:35:05.149Z,7.20
2018-12-05T08:37:31.665Z,4.97
2018-12-05T08:39:58.306Z,5.50
2018-12-05T08:42:24.845Z,8.18
2018-12-05T08:44:51.244Z,6.35
2018-12-05T08:47:17.701Z,5.22
2018-12-05T08:49:44.114Z,4.95
2018-12-05T08:52:10.565Z,6.33
2018-12-05T08:54:37.010Z,5.70
2018-12-05T08:57:03.549Z,5.22
2018-12-05T08:59:30.057Z,4.35
2018-12-05T09:01:56.517Z,3.90
2018-12-05T09:04:23.013Z,5.67
2018-12-05T09:06:49.488Z,5.30
2018-12-05T09:09:15.981Z,7.53
2018-12-05T09:11:42.562Z,5.08
2018-12-05T09:14:09.058Z,4.87
2018-12-05T09:16:35.502Z,4.72
2018-12-05T09:19:02.161Z,6.03
2018-12-05T09:21:28.802Z,4.53
2018-12-05T09:23:55.310Z,6.47
2018-12-05T09:26:21.829Z,4.08
2018-12-05T09:28:48.282Z,6.72
2018-12-05T09:31:14.823Z,4.00
2018-12-05T09:33:41.365Z,4.42
2018-12-05T09:36:07.765Z,4.45
2018-12-05T09:38:34.225Z,5.08
2018-12-05T09:41:00.741Z,6.10
2018-12-05T09:43:27.193Z,7.55
2018-12-05T09:45:53.597Z,5.12
2018-12-05T09:48:20.050Z,5.83
2018-12-05T09:50:46.471Z,5.17
2018-12-05T09:53:12.925Z,4.08
2018-12-05T09:55:39.334Z,5.62
2018-12-05T09:58:05.785Z,5.85
2018-12-05T10:00:32.806Z,5.08
2018-12-05T10:02:59.268Z,4.90
2018-12-05T10:05:25.779Z,4.20
2018-12-05T10:07:52.334Z,4.53
2018-12-05T10:10:18.757Z,6.65
2018-12-05T10:12:45.216Z,4.10
2018-12-05T10:15:11.929Z,4.30
2018-12-05T10:17:38.378Z,3.50
2018-12-05T10:20:05.097Z,3.15
2018-12-05T10:22:31.644Z,4.05
2018-12-05T10:24:58.157Z,4.45
2018-12-05T10:27:24.630Z,3.15
2018-12-05T10:29:51.253Z,3.70
2018-12-05T10:32:17.667Z,3.62
2018-12-05T10:34:44.117Z,3.10
2018-12-05T10:37:10.525Z,4.25
2018-12-05T10:39:37.098Z,2.67
2018-12-05T10:42:03.721Z,3.72
2018-12-05T10:44:30.283Z,4.65
2018-12-05T10:46:56.866Z,2.42
2018-12-05T10:49:23.541Z,3.02
2018-12-05T10:51:50.094Z,2.90
2018-12-05T10:54:16.818Z,6.62
2018-12-05T10:56:43.441Z,2.27
2018-12-05T10:59:10.010Z,2.75
2018-12-05T11:01:36.489Z,5.75
2018-12-05T11:04:02.962Z,3.05
2018-12-05T11:06:29.353Z,3.85
2018-12-05T11:08:55.813Z,2.12
2018-12-05T11:11:22.224Z,3.35
2018-12-05T11:13:48.793Z,3.67
2018-12-05T11:16:15.409Z,2.40
2018-12-05T11:18:42.073Z,3.75
2018-12-05T11:21:08.583Z,3.02
2018-12-05T11:23:35.249Z,3.37
2018-12-05T11:26:01.779Z,2.77
2018-12-05T11:28:28.269Z,3.33
2018-12-05T11:30:54.721Z,1.92
2018-12-05T11:33:21.154Z,4.47
2018-12-05T11:35:47.589Z,3.37
2018-12-05T11:38:14.014Z,2.30
2018-12-05T11:40:40.583Z,3.75
2018-12-05T11:43:07.184Z,4.30
2018-12-05T11:45:33.769Z,4.47
2018-12-05T11:54:46.797Z,2.00
2018-12-05T11:57:13.260Z,2.02
2018-12-05T11:59:39.803Z,4.08
2018-12-05T12:02:06.548Z,2.42
2018-12-05T12:04:33.122Z,3.08
2018-12-05T12:06:59.545Z,2.83
2018-12-05T12:09:25.986Z,2.50
2018-12-05T12:11:52.558Z,3.92
2018-12-05T12:14:19.073Z,2.50
2018-12-05T12:16:45.537Z,2.80
2018-12-05T12:19:12.033Z,2.25
2018-12-05T12:21:38.482Z,2.33
2018-12-05T12:24:04.900Z,3.00
2018-12-05T12:26:33.384Z,3.02
2018-12-05T12:28:59.929Z,3.60
2018-12-05T12:31:26.353Z,3.60
2018-12-05T12:33:52.787Z,3.10
2018-12-05T12:36:19.230Z,3.22
2018-12-05T12:38:45.633Z,2.77
2018-12-05T12:41:12.089Z,2.87
2018-12-05T12:43:38.506Z,2.95
2018-12-05T12:46:04.965Z,2.77
2018-12-05T12:48:31.475Z,3.92
2018-12-05T12:50:57.925Z,2.37
2018-12-05T12:53:24.438Z,3.55
2018-12-05T12:55:51.008Z,2.62
2018-12-05T12:58:17.510Z,4.70
2018-12-05T13:00:44.186Z,2.83
2018-12-05T13:03:10.741Z,3.50
2018-12-05T13:05:37.265Z,3.62
2018-12-05T13:08:03.758Z,2.58
2018-12-05T13:10:30.286Z,2.20
2018-12-05T13:12:56.739Z,2.65
2018-12-05T13:15:23.369Z,1.65
2018-12-05T13:17:49.805Z,3.00
2018-12-05T13:20:16.225Z,2.60
2018-12-05T13:22:42.679Z,3.08
2018-12-05T13:25:09.185Z,2.00
2018-12-05T13:27:35.637Z,3.12
2018-12-05T13:30:02.334Z,1.95
2018-12-05T13:32:28.913Z,2.90
2018-12-05T13:34:55.437Z,2.00
2018-12-05T13:37:21.880Z,2.62
2018-12-05T13:39:48.411Z,3.83
2018-12-05T13:42:14.955Z,2.40
2018-12-05T13:44:41.601Z,2.77
2018-12-05T13:47:08.129Z,2.87
2018-12-05T13:49:34.538Z,1.75
2018-12-05T13:52:01.098Z,2.52
2018-12-05T13:54:27.625Z,2.37
2018-12-05T13:56:54.078Z,2.22
2018-12-05T13:59:20.585Z,2.42
2018-12-05T14:01:47.140Z,2.17
2018-12-05T14:04:13.870Z,3.77
2018-12-05T14:06:40.293Z,1.65
2018-12-05T14:09:06.939Z,2.15
2018-12-05T14:11:33.485Z,2.37
2018-12-05T14:14:00.001Z,4.80
2018-12-05T14:16:26.426Z,3.05
2018-12-05T14:18:52.972Z,2.55
2018-12-05T14:21:19.501Z,2.17
2018-12-05T14:23:46.058Z,3.35
2018-12-05T14:26:12.574Z,1.47
2018-12-05T14:28:39.025Z,2.70
2018-12-05T14:31:05.643Z,2.37
2018-12-05T14:33:32.085Z,1.90
2018-12-05T14:35:58.513Z,2.50
2018-12-05T14:38:24.961Z,2.52
2018-12-05T14:40:51.401Z,1.82
2018-12-05T14:43:17.899Z,2.02
2018-12-05T14:45:44.373Z,2.25
2018-12-05T14:48:10.874Z,2.05
2018-12-05T14:50:37.402Z,1.92
2018-12-05T14:53:03.943Z,1.67
2018-12-05T14:55:30.397Z,1.40
2018-12-05T14:57:57.017Z,1.37
2018-12-05T15:00:23.469Z,1.85
2018-12-05T15:02:49.874Z,2.08
2018-12-05T15:05:16.441Z,1.42
2018-12-05T15:07:42.962Z,2.55
2018-12-05T15:10:09.517Z,1.82
2018-12-05T15:12:36.023Z,2.60
2018-12-05T15:15:02.666Z,1.77
2018-12-05T15:17:29.196Z,2.17
2018-12-05T15:19:55.629Z,1.55
2018-12-05T15:22:22.074Z,1.72
2018-12-05T15:24:48.489Z,3.35
2018-12-05T15:27:14.942Z,3.00
2018-12-05T15:29:41.462Z,2.27
2018-12-05T15:32:07.914Z,2.02
2018-12-05T15:34:34.481Z,2.80
2018-12-05T15:37:00.969Z,2.67
2018-12-05T15:39:27.394Z,2.05
2018-12-05T15:41:53.837Z,1.85
2018-12-05T15:44:20.257Z,2.17
2018-12-05T15:46:46.713Z,2.42
2018-12-05T15:49:13.226Z,2.12
2018-12-05T15:51:39.807Z,1.60
2018-12-05T15:54:06.403Z,1.60
2018-12-05T15:56:33.060Z,1.65
2018-12-05T15:58:59.570Z,1.52
2018-12-05T16:01:26.133Z,1.70
2018-12-05T16:03:52.639Z,1.70
2018-12-05T16:06:20.022Z,1.62
2018-12-05T16:08:46.542Z,1.90
2018-12-05T16:11:12.993Z,1.95
2018-12-05T16:13:39.501Z,1.57
2018-12-05T16:16:05.968Z,2.50
2018-12-05T16:18:32.573Z,2.45
2018-12-05T16:20:59.138Z,1.45
2018-12-05T16:23:25.638Z,1.67
2018-12-05T16:25:52.167Z,1.77
2018-12-05T16:28:18.742Z,1.37
2018-12-05T16:30:45.233Z,1.57
2018-12-05T16:33:11.693Z,1.52
2018-12-05T16:35:38.209Z,1.32
2018-12-05T16:38:04.666Z,1.72
2018-12-05T16:40:31.176Z,1.75
2018-12-05T16:42:57.737Z,1.30
2018-12-05T16:45:24.257Z,1.65
2018-12-05T16:47:50.707Z,1.42
2018-12-05T16:50:17.326Z,1.00
2018-12-05T16:52:43.774Z,1.20
2018-12-05T16:55:10.293Z,1.15
2018-12-05T16:57:36.738Z,0.95
2018-12-05T17:00:04.153Z,1.65
2018-12-05T17:02:30.638Z,2.75
2018-12-05T17:04:57.254Z,2.35
2018-12-05T17:07:23.682Z,1.17
2018-12-05T17:09:50.121Z,1.42
2018-12-05T17:12:16.586Z,1.42
2018-12-05T17:14:43.197Z,1.75
2018-12-05T17:17:09.649Z,1.42
2018-12-05T17:19:36.259Z,1.50
2018-12-05T17:22:02.713Z,1.57
2018-12-05T17:24:29.210Z,3.83
2018-12-05T17:26:55.649Z,1.17
2018-12-05T17:29:22.097Z,1.10
2018-12-05T17:31:48.522Z,1.57
2018-12-05T17:34:14.974Z,4.75
2018-12-05T17:36:41.584Z,2.45
2018-12-05T17:39:08.157Z,1.20
2018-12-05T17:41:34.650Z,1.65
2018-12-05T17:44:01.230Z,1.62
2018-12-05T17:46:27.726Z,1.37
2018-12-05T17:48:54.298Z,1.35
2018-12-05T17:51:20.790Z,1.60
2018-12-05T17:53:47.369Z,1.22
2018-12-05T17:56:13.872Z,1.60
2018-12-05T17:58:40.429Z,2.00
2018-12-05T18:01:07.037Z,1.77
2018-12-05T18:03:33.513Z,2.55
2018-12-05T18:06:00.011Z,1.32
2018-12-05T18:08:26.457Z,1.82
2018-12-05T18:10:52.886Z,1.55
2018-12-05T18:13:19.432Z,1.67
2018-12-05T18:15:46.161Z,2.85
2018-12-05T18:18:12.605Z,2.62
2018-12-05T18:20:39.261Z,3.65
2018-12-05T18:23:05.769Z,2.72
2018-12-05T18:25:32.302Z,4.15
2018-12-05T18:27:58.841Z,1.98
2018-12-05T18:30:25.290Z,3.20
2018-12-05T18:32:51.778Z,2.42
2018-12-05T18:35:18.357Z,2.75
2018-12-05T18:37:44.850Z,2.47
2018-12-05T18:40:11.434Z,2.70
2018-12-05T18:42:38.033Z,2.15
2018-12-05T18:45:05.993Z,3.05
2018-12-05T18:47:32.428Z,2.27
2018-12-05T18:49:58.906Z,1.77
2018-12-05T18:52:25.402Z,1.87
2018-12-05T18:54:51.976Z,3.30
2018-12-05T18:57:18.693Z,3.35
2018-12-05T18:59:45.130Z,3.40
2018-12-05T19:02:11.645Z,2.60
2018-12-05T19:04:38.110Z,2.05
2018-12-05T19:07:04.613Z,2.62
2018-12-05T19:09:31.082Z,2.52
2018-12-05T19:11:57.576Z,1.95
2018-12-05T19:14:24.026Z,2.80
2018-12-05T19:16:50.441Z,1.60
2018-12-05T19:19:16.893Z,2.58
2018-12-05T19:21:43.309Z,2.17
2018-12-05T19:24:09.768Z,2.40
2018-12-05T19:26:36.421Z,1.98
2018-12-05T19:29:02.945Z,4.28
2018-12-05T19:31:29.449Z,2.15
2018-12-05T19:33:55.880Z,2.72
2018-12-05T19:36:22.333Z,2.40
2018-12-05T19:38:48.762Z,2.60
2018-12-05T19:41:15.321Z,2.12
2018-12-05T19:43:41.813Z,2.62
2018-12-05T19:46:08.265Z,1.50
2018-12-05T19:48:34.686Z,2.20
2018-12-05T19:51:01.258Z,4.40
2018-12-05T19:53:27.757Z,1.70
2018-12-05T19:55:54.310Z,3.12
2018-12-05T19:58:20.945Z,1.72
2018-12-05T20:00:47.478Z,2.80
2018-12-05T20:03:13.894Z,5.30
2018-12-05T20:05:40.351Z,1.87
2018-12-05T20:08:06.863Z,3.20
2018-12-05T20:10:33.310Z,2.20
2018-12-05T20:12:59.730Z,3.30
2018-12-05T20:15:26.195Z,1.60
2018-12-05T20:17:52.915Z,1.70
2018-12-05T20:20:19.352Z,1.90
2018-12-05T20:22:45.869Z,1.52
2018-12-05T20:25:12.321Z,2.02
2018-12-05T20:27:38.934Z,2.95
2018-12-05T20:30:06.882Z,2.25
2018-12-05T20:32:33.332Z,1.98
2018-12-05T20:34:59.798Z,1.85
2018-12-05T20:37:26.310Z,2.12
2018-12-05T20:39:52.774Z,2.35
2018-12-05T20:42:19.290Z,1.47
2018-12-05T20:44:45.799Z,1.62
2018-12-05T20:47:12.361Z,2.12
2018-12-05T20:49:38.766Z,2.02
2018-12-05T20:52:05.345Z,3.20
2018-12-05T20:54:31.837Z,1.72
2018-12-05T20:56:58.301Z,2.20
2018-12-05T20:59:24.913Z,1.87
2018-12-05T21:01:51.366Z,1.52
2018-12-05T21:04:17.769Z,2.95
2018-12-05T21:06:44.241Z,1.80
2018-12-05T21:09:10.849Z,1.70
2018-12-05T21:11:37.293Z,2.20
2018-12-05T21:14:03.953Z,1.22
2018-12-05T21:16:30.589Z,1.30
2018-12-05T21:18:57.085Z,1.95
2018-12-05T21:21:23.545Z,2.22
2018-12-05T21:23:49.955Z,2.02
2018-12-05T21:26:16.533Z,3.40
2018-12-05T21:28:43.026Z,1.30
2018-12-05T21:31:09.590Z,2.02
2018-12-05T21:33:36.098Z,1.40
2018-12-05T21:36:02.657Z,1.70
2018-12-05T21:38:29.166Z,1.50
2018-12-05T21:40:55.630Z,1.22
2018-12-05T21:43:22.238Z,2.72
2018-12-05T21:45:48.667Z,2.05
2018-12-05T21:48:15.121Z,0.90
2018-12-05T21:50:41.638Z,2.65
2018-12-05T21:53:08.087Z,1.60
2018-12-05T21:55:34.605Z,3.05
2018-12-05T21:58:01.059Z,2.27
2018-12-05T22:00:27.570Z,1.65
2018-12-05T22:02:54.024Z,1.70
2018-12-05T22:05:20.435Z,1.70
2018-12-05T22:07:46.906Z,1.67
2018-12-05T22:10:13.406Z,1.55
2018-12-05T22:12:39.977Z,1.80
2018-12-05T22:15:06.594Z,1.25
2018-12-05T22:17:33.125Z,0.88
2018-12-05T22:19:59.533Z,1.67
2018-12-05T22:22:26.225Z,1.17
2018-12-05T22:24:52.729Z,1.35
2018-12-05T22:27:19.177Z,1.35
2018-12-05T22:29:45.801Z,1.12
2018-12-05T22:32:12.225Z,0.90
2018-12-05T22:34:38.666Z,1.10
2018-12-05T22:37:05.095Z,1.57
2018-12-05T22:39:31.541Z,3.98
2018-12-05T22:41:58.045Z,2.90
2018-12-05T22:44:24.501Z,1.77
2018-12-05T22:46:51.038Z,1.17
2018-12-05T22:49:17.470Z,1.20
2018-12-05T22:51:43.893Z,1.05
2018-12-05T22:54:10.345Z,1.40
2018-12-05T22:56:36.855Z,1.10
2018-12-05T22:59:03.302Z,1.52
2018-12-05T23:01:29.821Z,1.12
2018-12-05T23:03:56.273Z,1.00
2018-12-05T23:06:22.689Z,0.98
2018-12-05T23:08:49.215Z,0.93
2018-12-05T23:11:15.696Z,1.30
2018-12-05T23:13:42.213Z,1.72
2018-12-05T23:16:08.713Z,1.45
2018-12-05T23:18:35.184Z,1.37
2018-12-05T23:21:01.686Z,1.22
2018-12-05T23:23:28.133Z,0.95
2018-12-05T23:25:54.673Z,1.22
2018-12-05T23:28:21.117Z,0.78
2018-12-05T23:30:47.624Z,1.40
2018-12-05T23:33:14.159Z,0.88
2018-12-05T23:35:40.626Z,1.00
2018-12-05T23:38:07.227Z,1.20
2018-12-05T23:40:33.678Z,1.12
2018-12-05T23:43:00.317Z,1.22
2018-12-05T23:45:26.757Z,1.32
2018-12-05T23:47:53.169Z,1.15
2018-12-05T23:50:19.622Z,1.22
2018-12-05T23:52:46.021Z,1.35
2018-12-05T23:55:12.483Z,1.12
2018-12-05T23:57:39.113Z,0.90
